createdAt,value
2022-12-08T00:01:24.987Z,1.60
2022-12-08T00:03:52.820Z,1.50
2022-12-08T00:06:47.013Z,1.40
2022-12-08T00:09:23.378Z,1.50
2022-12-08T00:11:55.272Z,1.50
2022-12-08T00:14:40.775Z,1.60
2022-12-08T00:17:09.978Z,1.40
2022-12-08T00:19:38.997Z,1.50
2022-12-08T00:22:08.856Z,1.20
2022-12-08T00:24:40.898Z,1.20
2022-12-08T00:27:09.747Z,1.30
2022-12-08T00:29:37.675Z,1.20
2022-12-08T00:32:05.723Z,1.50
2022-12-08T00:34:33.443Z,1.00
2022-12-08T00:37:00.769Z,1.40
2022-12-08T00:39:28.084Z,1.20
2022-12-08T00:42:13.465Z,1.20
2022-12-08T00:44:45.068Z,1.40
2022-12-08T00:47:13.915Z,1.30
2022-12-08T00:49:41.602Z,1.20
2022-12-08T00:52:08.947Z,1.30
2022-12-08T00:54:36.246Z,1.30
2022-12-08T00:57:04.020Z,1.00
2022-12-08T00:59:31.330Z,1.30
2022-12-08T01:01:58.621Z,0.80
2022-12-08T01:04:26.145Z,1.10
2022-12-08T01:06:53.486Z,1.10
2022-12-08T01:09:20.835Z,1.10
2022-12-08T01:11:48.292Z,1.10
2022-12-08T01:14:15.689Z,1.10
2022-12-08T01:16:43.011Z,0.90
2022-12-08T01:19:12.896Z,0.90
2022-12-08T01:21:41.067Z,0.90
2022-12-08T01:24:14.890Z,1.10
2022-12-08T01:26:42.222Z,1.00
2022-12-08T01:29:10.352Z,0.80
2022-12-08T01:31:39.417Z,1.30
2022-12-08T01:34:07.434Z,0.60
2022-12-08T01:36:37.228Z,0.80
2022-12-08T01:39:07.057Z,0.80
2022-12-08T01:41:37.436Z,0.60
2022-12-08T01:44:16.485Z,1.20
2022-12-08T01:46:45.612Z,1.00
2022-12-08T01:49:20.985Z,0.80
2022-12-08T01:52:13.124Z,1.00
2022-12-08T01:54:53.808Z,0.60
2022-12-08T01:57:25.443Z,0.80
2022-12-08T02:00:14.069Z,0.70
2022-12-08T02:03:00.289Z,0.80
2022-12-08T02:05:33.199Z,0.80
2022-12-08T02:08:04.422Z,0.80
2022-12-08T02:10:35.214Z,0.70
2022-12-08T02:13:04.541Z,0.90
2022-12-08T02:15:57.315Z,0.80
2022-12-08T02:18:50.457Z,0.30
2022-12-08T02:21:48.081Z,0.80
2022-12-08T02:24:44.360Z,0.70
2022-12-08T02:27:30.812Z,0.80
2022-12-08T02:30:31.932Z,0.70
2022-12-08T02:33:36.690Z,0.70
2022-12-08T02:36:18.884Z,0.60
2022-12-08T02:38:56.190Z,0.40
2022-12-08T02:41:41.933Z,0.50
2022-12-08T02:44:28.014Z,0.60
2022-12-08T02:47:12.847Z,0.60
2022-12-08T02:49:40.312Z,0.70
2022-12-08T02:52:13.512Z,0.50
2022-12-08T02:54:46.452Z,0.30
2022-12-08T02:57:32.460Z,0.60
2022-12-08T03:00:15.875Z,0.20
2022-12-08T03:03:16.888Z,0.50
2022-12-08T03:06:12.767Z,0.50
2022-12-08T03:08:51.170Z,0.30
2022-12-08T03:11:41.590Z,0.20
2022-12-08T03:14:14.227Z,0.40
2022-12-08T03:16:45.721Z,0.00
2022-12-08T03:19:20.036Z,0.60
2022-12-08T03:21:51.699Z,0.10
2022-12-08T03:24:21.685Z,0.10
2022-12-08T03:26:57.024Z,0.90
2022-12-08T03:29:24.926Z,0.20
2022-12-08T03:31:59.053Z,-0.10
2022-12-08T03:34:29.007Z,0.30
2022-12-08T03:36:56.441Z,0.30
2022-12-08T03:39:23.764Z,0.10
2022-12-08T03:41:51.056Z,1.00
2022-12-08T03:44:18.351Z,0.10
2022-12-08T03:46:45.941Z,0.20
2022-12-08T03:49:13.182Z,0.20
2022-12-08T03:51:40.503Z,0.10
2022-12-08T03:54:07.781Z,0.10
2022-12-08T03:56:38.023Z,-0.10
2022-12-08T03:59:06.815Z,0.20
2022-12-08T04:01:34.493Z,0.10
2022-12-08T04:04:01.928Z,0.00
2022-12-08T04:06:29.232Z,0.10
2022-12-08T04:08:56.528Z,0.10
2022-12-08T04:11:23.824Z,0.10
2022-12-08T04:16:22.011Z,0.10
2022-12-08T04:18:49.400Z,0.10
2022-12-08T04:21:17.315Z,0.10
2022-12-08T04:23:45.172Z,0.00
2022-12-08T04:26:13.727Z,0.30
2022-12-08T04:28:41.052Z,0.20
2022-12-08T04:31:08.515Z,0.00
2022-12-08T04:33:35.960Z,-0.10
2022-12-08T04:36:04.978Z,-0.20
2022-12-08T04:38:32.966Z,0.00
2022-12-08T04:41:00.584Z,-0.20
2022-12-08T04:43:27.956Z,0.10
2022-12-08T04:45:55.421Z,0.00
2022-12-08T04:48:23.253Z,-0.30
2022-12-08T04:50:51.531Z,-0.10
2022-12-08T04:53:20.058Z,-0.30
2022-12-08T04:55:49.573Z,0.00
2022-12-08T04:58:18.731Z,-0.30
2022-12-08T05:00:46.791Z,-0.20
2022-12-08T05:03:14.669Z,-0.10
2022-12-08T05:05:42.899Z,0.10
2022-12-08T05:08:10.867Z,-0.10
2022-12-08T05:10:38.798Z,-0.30
2022-12-08T05:13:06.093Z,-0.10
2022-12-08T05:15:33.346Z,-0.10
2022-12-08T05:18:00.685Z,-0.10
2022-12-08T05:20:27.947Z,-0.30
2022-12-08T05:22:55.186Z,-0.30
2022-12-08T05:25:22.569Z,-0.40
2022-12-08T05:27:49.847Z,0.00
2022-12-08T05:30:17.255Z,-0.40
2022-12-08T05:32:44.486Z,-0.10
2022-12-08T05:35:11.734Z,-0.30
2022-12-08T05:37:39.148Z,-0.40
2022-12-08T05:40:07.552Z,-0.10
2022-12-08T05:45:02.916Z,-0.40
2022-12-08T05:47:34.518Z,-0.40
2022-12-08T05:50:04.238Z,-0.20
2022-12-08T05:52:32.514Z,-0.20
2022-12-08T05:55:00.264Z,-0.40
2022-12-08T05:57:27.570Z,-0.30
2022-12-08T06:04:52.165Z,-0.20
2022-12-08T06:07:19.658Z,-0.30
2022-12-08T06:09:47.197Z,-0.20
2022-12-08T06:12:16.133Z,0.00
2022-12-08T06:14:43.571Z,0.00
2022-12-08T06:17:11.054Z,-0.40
2022-12-08T06:19:38.392Z,-0.30
2022-12-08T06:22:05.676Z,-0.50
2022-12-08T06:24:32.911Z,-0.50
2022-12-08T06:29:27.756Z,0.00
2022-12-08T06:31:55.094Z,0.60
2022-12-08T06:34:22.428Z,-0.10
2022-12-08T06:36:49.661Z,-0.20
2022-12-08T06:39:16.893Z,-0.20
2022-12-08T06:42:02.698Z,-0.60
2022-12-08T06:44:29.915Z,-0.30
2022-12-08T06:46:57.157Z,-0.30
2022-12-08T06:49:24.411Z,-0.70
2022-12-08T06:54:19.215Z,-0.50
2022-12-08T06:56:46.437Z,-0.40
2022-12-08T06:59:13.709Z,-0.50
2022-12-08T07:01:41.014Z,-0.20
2022-12-08T07:04:08.451Z,-0.40
2022-12-08T07:06:35.902Z,-0.20
2022-12-08T07:09:04.059Z,-0.30
2022-12-08T07:11:31.402Z,-0.50
2022-12-08T07:13:59.028Z,-0.60
2022-12-08T07:16:26.391Z,-0.20
2022-12-08T07:18:53.746Z,-0.40
2022-12-08T07:21:21.222Z,-0.60
2022-12-08T07:23:54.410Z,-0.50
2022-12-08T07:26:24.991Z,-0.30
2022-12-08T07:28:52.306Z,-0.30
2022-12-08T07:31:25.494Z,-0.50
2022-12-08T07:33:53.218Z,-0.50
2022-12-08T07:36:20.677Z,-0.50
2022-12-08T07:38:48.988Z,-0.30
2022-12-08T07:41:18.159Z,-0.40
2022-12-08T07:43:45.601Z,-0.40
2022-12-08T07:46:18.585Z,-0.50
2022-12-08T07:48:46.416Z,-0.30
2022-12-08T07:51:15.402Z,-0.30
2022-12-08T07:53:51.560Z,-0.50
2022-12-08T07:56:21.300Z,-0.30
2022-12-08T07:58:48.795Z,-0.40
2022-12-08T08:01:27.979Z,-0.20
2022-12-08T08:03:57.373Z,-0.30
2022-12-08T08:06:24.976Z,-0.20
2022-12-08T08:08:52.254Z,-0.40
2022-12-08T08:11:21.516Z,-0.20
2022-12-08T08:13:50.190Z,-0.30
2022-12-08T08:16:18.435Z,-0.20
2022-12-08T08:18:48.953Z,-0.30
2022-12-08T08:21:46.881Z,-0.10
2022-12-08T08:24:04.982Z,-0.20
2022-12-08T08:26:32.329Z,-0.40
2022-12-08T08:28:59.726Z,-0.10
2022-12-08T08:31:27.358Z,-0.20
2022-12-08T08:33:55.948Z,0.30
2022-12-08T08:36:23.435Z,-0.30
2022-12-08T08:38:50.719Z,-0.40
2022-12-08T08:41:17.936Z,-0.50
2022-12-08T08:43:45.553Z,-0.40
2022-12-08T08:46:12.901Z,-0.20
2022-12-08T08:48:40.654Z,-0.30
2022-12-08T08:51:10.684Z,-0.40
2022-12-08T08:53:38.374Z,-0.30
2022-12-08T08:56:11.217Z,-0.10
2022-12-08T08:58:38.500Z,-0.20
2022-12-08T09:01:05.991Z,0.00
2022-12-08T09:03:33.276Z,-0.20
2022-12-08T09:06:00.710Z,-0.30
2022-12-08T09:08:28.575Z,-0.30
2022-12-08T09:10:55.933Z,0.00
2022-12-08T09:13:23.564Z,-0.10
2022-12-08T09:15:50.867Z,0.10
2022-12-08T09:18:18.159Z,0.10
2022-12-08T09:20:45.459Z,0.40
2022-12-08T09:23:12.716Z,0.00
2022-12-08T09:30:35.543Z,0.10
2022-12-08T09:33:03.394Z,0.40
2022-12-08T09:37:58.353Z,0.40
2022-12-08T09:40:26.867Z,0.20
2022-12-08T09:43:02.040Z,0.30
2022-12-08T09:45:34.601Z,0.40
2022-12-08T09:48:11.979Z,0.40
2022-12-08T09:50:41.210Z,0.40
2022-12-08T09:53:11.271Z,0.40
2022-12-08T09:55:50.497Z,0.40
2022-12-08T09:58:51.807Z,0.60
2022-12-08T10:01:21.167Z,0.60
2022-12-08T10:03:48.766Z,1.20
2022-12-08T10:06:18.814Z,0.70
2022-12-08T10:08:58.853Z,0.80
2022-12-08T10:11:36.445Z,0.80
2022-12-08T10:14:19.619Z,0.90
2022-12-08T10:16:52.040Z,1.30
2022-12-08T10:19:23.392Z,1.00
2022-12-08T10:21:53.119Z,1.30
2022-12-08T10:24:32.675Z,1.30
2022-12-08T10:27:01.561Z,1.00
2022-12-08T10:29:28.952Z,1.20
2022-12-08T10:32:00.024Z,1.20
2022-12-08T10:34:27.400Z,1.80
2022-12-08T10:36:57.113Z,1.40
2022-12-08T10:39:45.871Z,1.40
2022-12-08T10:42:22.249Z,1.70
2022-12-08T10:44:55.188Z,1.80
2022-12-08T10:47:25.108Z,1.80
2022-12-08T10:50:19.226Z,1.90
2022-12-08T10:52:58.422Z,1.80
2022-12-08T10:55:26.412Z,2.10
2022-12-08T10:57:53.676Z,2.30
2022-12-08T11:00:27.199Z,2.30
2022-12-08T11:02:56.192Z,1.80
2022-12-08T11:05:28.100Z,2.40
2022-12-08T11:07:56.449Z,2.60
2022-12-08T11:10:35.481Z,3.90
2022-12-08T11:13:06.272Z,3.50
2022-12-08T11:15:39.951Z,4.10
2022-12-08T11:18:20.229Z,3.70
2022-12-08T11:20:47.497Z,3.90
2022-12-08T11:23:21.419Z,4.00
2022-12-08T11:25:50.377Z,4.20
2022-12-08T11:28:24.638Z,4.50
2022-12-08T11:31:00.297Z,4.40
2022-12-08T11:33:29.095Z,4.70
2022-12-08T11:35:56.328Z,4.90
2022-12-08T11:38:26.497Z,5.30
2022-12-08T11:41:15.737Z,5.20
2022-12-08T11:44:01.851Z,5.40
2022-12-08T11:46:48.767Z,5.50
2022-12-08T11:49:18.049Z,5.60
2022-12-08T11:51:53.041Z,5.80
2022-12-08T11:54:34.298Z,6.10
2022-12-08T11:57:04.811Z,5.90
2022-12-08T11:59:46.100Z,6.60
2022-12-08T12:02:25.085Z,6.50
2022-12-08T12:05:02.680Z,6.70
2022-12-08T12:07:56.231Z,7.00
2022-12-08T12:10:40.128Z,6.90
2022-12-08T12:13:10.397Z,6.90
2022-12-08T12:16:08.775Z,7.10
2022-12-08T12:18:50.883Z,7.10
2022-12-08T12:21:32.558Z,7.20
2022-12-08T12:24:23.779Z,7.00
2022-12-08T12:26:56.369Z,6.90
2022-12-08T12:29:28.173Z,6.80
2022-12-08T12:31:59.286Z,7.90
2022-12-08T12:34:30.707Z,7.00
2022-12-08T12:37:07.199Z,6.80
2022-12-08T12:39:49.143Z,6.80
2022-12-08T12:42:37.200Z,6.90
2022-12-08T12:45:16.796Z,7.20
2022-12-08T12:47:48.625Z,7.60
2022-12-08T12:50:35.107Z,8.10
2022-12-08T12:53:20.439Z,8.40
2022-12-08T12:55:56.945Z,8.20
2022-12-08T12:58:30.385Z,9.10
2022-12-08T13:01:13.111Z,9.00
2022-12-08T13:03:43.478Z,9.00
2022-12-08T13:06:14.849Z,9.20
2022-12-08T13:08:52.125Z,8.90
2022-12-08T13:11:20.167Z,9.40
2022-12-08T13:13:57.777Z,9.20
2022-12-08T13:16:27.641Z,9.40
2022-12-08T13:19:02.264Z,9.90
2022-12-08T13:21:38.191Z,10.20
2022-12-08T13:24:17.003Z,10.40
2022-12-08T13:27:04.272Z,10.60
2022-12-08T13:29:37.244Z,10.70
2022-12-08T13:32:24.932Z,11.00
2022-12-08T13:34:57.784Z,11.20
2022-12-08T13:37:54.444Z,11.30
2022-12-08T13:40:30.049Z,11.30
2022-12-08T13:43:06.255Z,11.50
2022-12-08T13:46:34.647Z,11.50
2022-12-08T13:55:12.974Z,11.20
2022-12-08T13:57:30.324Z,11.30
2022-12-08T14:00:06.657Z,11.90
2022-12-08T14:02:48.257Z,11.40
2022-12-08T14:05:19.780Z,11.90
2022-12-08T14:08:30.120Z,12.00
2022-12-08T14:11:07.004Z,12.30
2022-12-08T14:13:34.784Z,12.70
2022-12-08T14:16:02.348Z,12.50
2022-12-08T14:18:31.555Z,12.90
2022-12-08T14:21:21.069Z,12.80
2022-12-08T14:23:48.753Z,12.90
2022-12-08T14:26:16.069Z,13.30
2022-12-08T14:28:45.192Z,13.10
2022-12-08T14:31:14.633Z,13.20
2022-12-08T14:33:43.025Z,13.30
2022-12-08T14:36:12.520Z,13.40
2022-12-08T14:38:40.020Z,13.30
2022-12-08T14:41:11.591Z,13.30
2022-12-08T14:43:40.969Z,13.40
2022-12-08T14:46:22.836Z,13.30
2022-12-08T14:48:50.426Z,13.30
2022-12-08T14:51:20.846Z,13.30
2022-12-08T14:53:58.808Z,13.40
2022-12-08T14:56:32.953Z,13.50
2022-12-08T14:59:17.515Z,13.20
2022-12-08T15:01:46.149Z,13.10
2022-12-08T15:04:13.508Z,13.20
2022-12-08T15:06:52.910Z,13.30
2022-12-08T15:09:40.952Z,13.10
2022-12-08T15:12:14.181Z,12.90
2022-12-08T15:14:54.972Z,12.70
2022-12-08T15:17:42.572Z,12.90
2022-12-08T15:20:35.382Z,12.40
2022-12-08T15:23:03.773Z,12.20
2022-12-08T15:25:31.541Z,11.20
2022-12-08T15:27:58.808Z,10.20
2022-12-08T15:30:28.944Z,10.80
2022-12-08T15:32:56.476Z,7.40
2022-12-08T15:35:23.926Z,9.30
2022-12-08T15:37:51.332Z,8.50
2022-12-08T15:40:21.359Z,8.10
2022-12-08T15:42:49.264Z,7.60
2022-12-08T15:45:17.351Z,7.60
2022-12-08T15:47:45.416Z,7.40
2022-12-08T15:50:17.676Z,7.00
2022-12-08T15:52:45.244Z,7.00
2022-12-08T15:55:17.684Z,5.90
2022-12-08T16:00:52.560Z,6.20
2022-12-08T16:09:21.482Z,5.50
2022-12-08T16:12:09.428Z,5.20
2022-12-08T16:17:26.667Z,5.00
2022-12-08T16:19:54.709Z,4.50
2022-12-08T16:25:20.377Z,4.90
2022-12-08T16:28:01.417Z,5.30
2022-12-08T16:30:30.754Z,4.70
2022-12-08T16:32:58.100Z,4.40
2022-12-08T16:35:25.386Z,4.30
2022-12-08T16:37:52.667Z,4.30
2022-12-08T16:40:20.166Z,4.10
2022-12-08T16:42:49.745Z,4.10
2022-12-08T16:45:29.254Z,4.00
2022-12-08T16:47:59.429Z,4.10
2022-12-08T16:50:30.009Z,4.00
2022-12-08T16:52:58.374Z,4.00
2022-12-08T16:55:26.176Z,3.80
2022-12-08T16:57:53.597Z,3.80
2022-12-08T17:00:27.921Z,3.90
2022-12-08T17:02:55.725Z,3.70
2022-12-08T17:05:25.039Z,3.60
2022-12-08T17:07:53.775Z,3.40
2022-12-08T17:10:25.711Z,3.30
2022-12-08T17:12:53.839Z,3.60
2022-12-08T17:15:24.480Z,3.60
2022-12-08T17:17:52.170Z,3.60
2022-12-08T17:20:22.501Z,3.60
2022-12-08T17:22:50.111Z,3.60
2022-12-08T17:25:17.426Z,3.70
2022-12-08T17:27:44.734Z,3.50
2022-12-08T17:30:15.568Z,3.50
2022-12-08T17:32:43.207Z,3.50
2022-12-08T17:35:11.388Z,3.30
2022-12-08T17:37:38.796Z,3.50
2022-12-08T17:40:06.909Z,3.50
2022-12-08T17:42:34.315Z,3.40
2022-12-08T17:45:01.519Z,3.20
2022-12-08T17:49:56.953Z,3.30
2022-12-08T17:52:24.329Z,3.30
2022-12-08T17:54:51.662Z,3.30
2022-12-08T17:57:18.972Z,3.50
2022-12-08T17:59:46.189Z,3.40
2022-12-08T18:02:13.583Z,3.00
2022-12-08T18:04:40.899Z,3.30
2022-12-08T18:07:08.156Z,3.10
2022-12-08T18:09:35.435Z,3.40
2022-12-08T18:12:02.831Z,3.20
2022-12-08T18:14:30.127Z,3.20
2022-12-08T18:19:26.233Z,3.20
2022-12-08T18:21:53.500Z,2.80
2022-12-08T18:24:23.242Z,3.10
2022-12-08T18:26:52.352Z,3.10
2022-12-08T18:29:20.893Z,2.70
2022-12-08T18:31:48.633Z,2.80
2022-12-08T18:34:16.206Z,3.30
2022-12-08T18:36:43.477Z,2.80
2022-12-08T18:39:29.606Z,2.80
2022-12-08T18:41:58.470Z,2.90
2022-12-08T18:44:25.859Z,3.10
2022-12-08T18:46:53.286Z,2.50
2022-12-08T18:49:20.837Z,2.50
2022-12-08T18:51:48.240Z,2.50
2022-12-08T18:54:15.683Z,2.60
2022-12-08T18:56:43.043Z,2.40
2022-12-08T18:59:12.211Z,2.60
2022-12-08T19:01:40.712Z,2.50
2022-12-08T19:04:27.913Z,2.70
2022-12-08T19:06:57.113Z,2.40
2022-12-08T19:09:26.799Z,2.60
2022-12-08T19:11:55.080Z,2.40
2022-12-08T19:14:27.724Z,2.70
2022-12-08T19:16:59.110Z,2.70
2022-12-08T19:19:27.667Z,2.30
2022-12-08T19:21:55.319Z,2.30
2022-12-08T19:24:23.046Z,2.20
2022-12-08T19:26:50.350Z,2.20
2022-12-08T19:29:18.083Z,2.00
2022-12-08T19:31:45.889Z,2.00
2022-12-08T19:34:14.173Z,2.10
2022-12-08T19:36:42.605Z,1.90
2022-12-08T19:39:39.882Z,2.00
2022-12-08T19:42:34.955Z,1.70
2022-12-08T19:45:12.449Z,1.70
2022-12-08T19:47:40.520Z,1.60
2022-12-08T19:50:28.164Z,1.90
2022-12-08T19:52:56.054Z,1.60
2022-12-08T19:55:24.419Z,1.60
2022-12-08T19:57:52.650Z,1.60
2022-12-08T20:00:20.992Z,1.70
2022-12-08T20:02:48.454Z,1.20
2022-12-08T20:05:16.109Z,1.60
2022-12-08T20:07:43.555Z,1.70
2022-12-08T20:10:22.257Z,2.60
2022-12-08T20:12:49.582Z,1.40
2022-12-08T20:15:16.907Z,1.70
2022-12-08T20:17:44.292Z,1.80
2022-12-08T20:20:13.105Z,1.70
2022-12-08T20:22:40.619Z,1.60
2022-12-08T20:25:12.780Z,1.60
2022-12-08T20:27:41.295Z,1.60
2022-12-08T20:30:14.963Z,1.60
2022-12-08T20:32:44.981Z,1.70
2022-12-08T20:35:12.329Z,1.30
2022-12-08T20:37:39.609Z,1.70
2022-12-08T20:40:07.692Z,1.50
2022-12-08T20:42:34.968Z,1.40
2022-12-08T20:45:02.409Z,1.30
2022-12-08T20:47:29.716Z,1.30
2022-12-08T20:49:57.056Z,1.40
2022-12-08T20:52:24.433Z,1.30
2022-12-08T20:54:51.689Z,1.30
2022-12-08T20:57:19.109Z,1.00
2022-12-08T20:59:46.355Z,1.10
2022-12-08T21:02:13.759Z,1.20
2022-12-08T21:04:41.373Z,1.20
2022-12-08T21:07:09.074Z,1.00
2022-12-08T21:09:36.966Z,0.60
2022-12-08T21:12:04.702Z,1.00
2022-12-08T21:14:32.148Z,1.20
2022-12-08T21:16:59.604Z,1.10
2022-12-08T21:19:27.156Z,1.20
2022-12-08T21:21:54.526Z,1.10
2022-12-08T21:24:21.927Z,0.90
2022-12-08T21:26:49.330Z,1.00
2022-12-08T21:29:16.975Z,1.00
2022-12-08T21:31:44.506Z,0.90
2022-12-08T21:34:12.123Z,1.00
2022-12-08T21:44:26.852Z,0.60
2022-12-08T21:46:54.274Z,0.50
2022-12-08T21:49:21.679Z,0.60
2022-12-08T21:51:49.093Z,0.40
2022-12-08T21:54:19.143Z,0.80
2022-12-08T21:56:48.721Z,0.50
2022-12-08T21:59:17.730Z,0.30
2022-12-08T22:01:45.347Z,0.20
2022-12-08T22:04:17.504Z,0.50
2022-12-08T22:06:45.226Z,0.40
2022-12-08T22:09:15.240Z,0.30
2022-12-08T22:11:44.076Z,0.10
2022-12-08T22:16:43.449Z,0.40
2022-12-08T22:19:12.083Z,0.30
2022-12-08T22:21:39.640Z,0.30
2022-12-08T22:24:07.233Z,0.20
2022-12-08T22:26:34.845Z,0.10
2022-12-08T22:29:02.196Z,0.30
2022-12-08T22:31:30.946Z,0.00
2022-12-08T22:33:59.522Z,0.10
2022-12-08T22:36:28.178Z,0.30
2022-12-08T22:38:56.477Z,0.30
2022-12-08T22:41:24.441Z,0.70
2022-12-08T22:43:51.900Z,0.20
2022-12-08T22:46:22.669Z,0.20
2022-12-08T22:48:51.488Z,0.20
2022-12-08T22:51:19.353Z,0.40
2022-12-08T22:53:47.233Z,0.20
2022-12-08T22:56:15.999Z,0.00
2022-12-08T23:01:30.347Z,0.20
2022-12-08T23:03:59.437Z,0.10
2022-12-08T23:06:28.550Z,-0.20
2022-12-08T23:08:56.674Z,0.10
2022-12-08T23:11:29.758Z,0.00
2022-12-08T23:14:00.571Z,-0.10
2022-12-08T23:16:28.703Z,-0.10
2022-12-08T23:18:56.543Z,-0.10
2022-12-08T23:21:23.975Z,-0.10
2022-12-08T23:23:51.431Z,-0.20
2022-12-08T23:26:22.460Z,0.00
2022-12-08T23:28:50.624Z,-0.30
2022-12-08T23:31:18.908Z,-0.40
2022-12-08T23:36:15.528Z,-0.20
2022-12-08T23:38:43.771Z,0.30
2022-12-08T23:41:14.268Z,-0.20
2022-12-08T23:43:50.726Z,-0.30
2022-12-08T23:46:21.075Z,-0.10
2022-12-08T23:48:49.522Z,-0.30
2022-12-08T23:51:17.697Z,-0.20
2022-12-08T23:53:45.500Z,-0.20
2022-12-08T23:56:15.040Z,-0.30
2022-12-08T23:58:43.268Z,-0.40
